Time;durP1;ratioP1;P1;durP2;ratioP2;P2;SDS_P1;SDS_P2;PMS_P1;PMS_P2;Temp;Humidity;BMP_temperature;BMP_pressure;BME280_temperature;BME280_humidity;BME280_pressure;Samples;Min_cycle;Max_cycle;Signal;HPM_P1;HPM_P2
2021/06/21 00:02:15;;;;;;;7.82;4.40;;;;;;;;;;5071095;28;20103;-72
2021/06/21 00:04:41;;;;;;;5.68;3.60;;;;;;;;;;5073051;28;20027;-72
2021/06/21 00:07:07;;;;;;;7.78;3.90;;;;;;;;;;5076793;28;20040;-74
2021/06/21 00:09:33;;;;;;;9.27;4.70;;;;;;;;;;5103173;28;20391;-72
2021/06/21 00:11:59;;;;;;;5.78;3.90;;;;;;;;;;5078800;28;20024;-72
2021/06/21 00:14:25;;;;;;;5.55;3.70;;;;;;;;;;5091305;28;20059;-72
2021/06/21 00:16:51;;;;;;;8.63;4.35;;;;;;;;;;5091330;28;20495;-72
2021/06/21 00:19:17;;;;;;;5.60;3.60;;;;;;;;;;5074247;28;20021;-72
2021/06/21 00:21:43;;;;;;;6.50;3.58;;;;;;;;;;5076363;28;20028;-72
2021/06/21 00:24:09;;;;;;;6.38;3.70;;;;;;;;;;5084196;28;20157;-71
2021/06/21 00:26:35;;;;;;;6.88;3.50;;;;;;;;;;5087804;28;20070;-72
2021/06/21 00:29:02;;;;;;;4.18;3.28;;;;;;;;;;5087992;28;20032;-72
2021/06/21 00:31:28;;;;;;;7.90;4.00;;;;;;;;;;5078728;28;20035;-72
2021/06/21 00:33:54;;;;;;;5.45;3.30;;;;;;;;;;5080290;28;20040;-71
2021/06/21 00:36:20;;;;;;;7.85;3.90;;;;;;;;;;5070488;28;20103;-74
2021/06/21 00:38:46;;;;;;;8.05;3.60;;;;;;;;;;5082187;28;20036;-73
2021/06/21 00:41:12;;;;;;;5.22;3.25;;;;;;;;;;5071200;28;20052;-73
2021/06/21 00:43:39;;;;;;;5.15;3.88;;;;;;;;;;5072054;28;20090;-73
2021/06/21 00:46:05;;;;;;;7.22;3.67;;;;;;;;;;5084367;28;20051;-73
2021/06/21 00:48:31;;;;;;;5.63;3.40;;;;;;;;;;5090809;28;20031;-73
2021/06/21 00:50:57;;;;;;;4.57;3.20;;;;;;;;;;5073640;28;20032;-73
2021/06/21 00:53:23;;;;;;;6.20;3.38;;;;;;;;;;5058775;28;20412;-72
2021/06/21 00:55:49;;;;;;;8.05;3.20;;;;;;;;;;5072142;28;20047;-72
2021/06/21 00:58:15;;;;;;;5.53;3.55;;;;;;;;;;5076225;28;20032;-73
2021/06/21 01:00:41;;;;;;;9.30;4.18;;;;;;;;;;5075521;28;20037;-73
2021/06/21 01:03:07;;;;;;;5.55;3.05;;;;;;;;;;5074710;28;20508;-73
2021/06/21 01:05:38;;;;;;;6.72;3.58;;;;;;;;;;5079425;28;20090;-72
2021/06/21 01:08:08;;;;;;;4.05;3.28;;;;;;;;;;5079383;28;20059;-73
2021/06/21 01:10:35;;;;;;;6.00;3.13;;;;;;;;;;5070645;28;20116;-73
2021/06/21 01:13:17;;;;;;;5.88;2.90;;;;;;;;;;5072975;28;20024;-73
2021/06/21 01:15:53;;;;;;;8.88;3.38;;;;;;;;;;5080828;28;20021;-72
2021/06/21 01:18:23;;;;;;;8.57;3.70;;;;;;;;;;5084071;28;20104;-73
2021/06/21 01:21:08;;;;;;;6.82;4.13;;;;;;;;;;5065743;28;20039;-73
2021/06/21 01:23:53;;;;;;;4.80;2.88;;;;;;;;;;5076068;28;20063;-73
2021/06/21 01:26:20;;;;;;;4.53;2.97;;;;;;;;;;5070334;28;20099;-73
2021/06/21 01:28:54;;;;;;;3.15;2.55;;;;;;;;;;5079863;28;20280;-73
2021/06/21 01:31:21;;;;;;;5.95;2.80;;;;;;;;;;5083724;28;20103;-73
2021/06/21 01:33:47;;;;;;;5.28;3.42;;;;;;;;;;5079753;28;20028;-72
2021/06/21 01:36:16;;;;;;;4.68;2.70;;;;;;;;;;5083411;28;20432;-73
2021/06/21 01:38:44;;;;;;;5.68;2.70;;;;;;;;;;5079061;28;20036;-73
2021/06/21 01:41:13;;;;;;;5.80;3.08;;;;;;;;;;5071816;28;20028;-73
2021/06/21 01:43:41;;;;;;;5.50;2.72;;;;;;;;;;5070105;28;20033;-72
2021/06/21 01:46:08;;;;;;;5.38;2.97;;;;;;;;;;5061070;28;20017;-73
2021/06/21 01:48:37;;;;;;;4.10;3.10;;;;;;;;;;5074375;28;20016;-73
2021/06/21 01:51:04;;;;;;;9.60;3.08;;;;;;;;;;5073771;28;20047;-73
2021/06/21 01:53:32;;;;;;;5.78;2.83;;;;;;;;;;5072832;28;20039;-72
2021/06/21 01:55:58;;;;;;;2.80;2.50;;;;;;;;;;5089215;28;20036;-73
2021/06/21 01:58:25;;;;;;;5.78;2.60;;;;;;;;;;5087391;28;20032;-73
2021/06/21 02:00:51;;;;;;;4.30;2.55;;;;;;;;;;5068661;28;20043;-72
2021/06/21 02:03:18;;;;;;;3.75;2.85;;;;;;;;;;5060074;28;20021;-73
2021/06/21 02:05:44;;;;;;;7.70;3.03;;;;;;;;;;5078490;28;20028;-72
2021/06/21 02:08:13;;;;;;;7.93;2.90;;;;;;;;;;5079134;28;20090;-73
2021/06/21 02:10:39;;;;;;;6.50;2.50;;;;;;;;;;5101241;28;20521;-72
2021/06/21 02:13:07;;;;;;;5.35;2.90;;;;;;;;;;5076053;28;20025;-73
2021/06/21 02:15:33;;;;;;;4.72;2.90;;;;;;;;;;5074455;28;20025;-73
2021/06/21 02:18:00;;;;;;;7.72;2.95;;;;;;;;;;5063473;28;20063;-73
2021/06/21 02:20:26;;;;;;;5.00;2.67;;;;;;;;;;5068065;28;20232;-72
2021/06/21 02:22:53;;;;;;;5.50;3.03;;;;;;;;;;5074848;28;20040;-73
2021/06/21 02:25:19;;;;;;;3.30;2.60;;;;;;;;;;5092400;28;20031;-72
2021/06/21 02:27:45;;;;;;;4.80;2.70;;;;;;;;;;5078999;28;20060;-73
2021/06/21 02:30:13;;;;;;;5.35;2.60;;;;;;;;;;5085626;28;20347;-72
2021/06/21 02:32:41;;;;;;;3.85;2.75;;;;;;;;;;5075629;28;20033;-72
2021/06/21 02:35:09;;;;;;;4.70;2.60;;;;;;;;;;5081954;28;20464;-73
2021/06/21 02:37:38;;;;;;;2.95;2.53;;;;;;;;;;5079758;28;20479;-73
2021/06/21 02:40:06;;;;;;;6.43;2.55;;;;;;;;;;5079336;28;20033;-73
2021/06/21 02:42:32;;;;;;;7.30;2.63;;;;;;;;;;5081100;28;20034;-73
2021/06/21 02:44:58;;;;;;;6.13;2.90;;;;;;;;;;5079191;28;20013;-72
2021/06/21 02:47:24;;;;;;;3.38;2.67;;;;;;;;;;5074311;28;20024;-73
2021/06/21 02:49:51;;;;;;;6.30;2.58;;;;;;;;;;5074959;28;20029;-72
2021/06/21 02:52:27;;;;;;;4.35;2.80;;;;;;;;;;5073971;28;20059;-72
2021/06/21 02:55:08;;;;;;;3.13;2.70;;;;;;;;;;5079024;28;20029;-72
2021/06/21 02:57:56;;;;;;;4.82;2.55;;;;;;;;;;5076292;28;20410;-73
2021/06/21 03:00:22;;;;;;;3.92;2.85;;;;;;;;;;5085513;28;20020;-72
2021/06/21 03:02:48;;;;;;;7.95;3.17;;;;;;;;;;5073856;28;20028;-72
2021/06/21 03:05:15;;;;;;;4.97;2.72;;;;;;;;;;5076010;28;20024;-72
2021/06/21 03:07:42;;;;;;;7.78;2.63;;;;;;;;;;5073262;28;20048;-72
2021/06/21 03:10:09;;;;;;;7.13;2.80;;;;;;;;;;5081182;28;20505;-72
2021/06/21 03:12:36;;;;;;;3.90;2.40;;;;;;;;;;5074283;28;20029;-72
2021/06/21 03:15:02;;;;;;;6.97;2.78;;;;;;;;;;5076547;28;20034;-72
2021/06/21 03:17:29;;;;;;;6.93;2.83;;;;;;;;;;5073551;28;20043;-72
2021/06/21 03:19:55;;;;;;;4.90;2.60;;;;;;;;;;5067537;28;20060;-72
2021/06/21 03:22:25;;;;;;;6.72;2.38;;;;;;;;;;5076130;28;20032;-72
2021/06/21 03:24:52;;;;;;;4.15;2.67;;;;;;;;;;5074844;28;20363;-73
2021/06/21 03:27:18;;;;;;;3.15;2.17;;;;;;;;;;5083477;28;20035;-72
2021/06/21 03:29:44;;;;;;;4.88;2.33;;;;;;;;;;5073751;28;20051;-73
2021/06/21 03:32:27;;;;;;;7.28;2.85;;;;;;;;;;5077076;28;20035;-72
2021/06/21 03:34:54;;;;;;;6.65;2.17;;;;;;;;;;5075711;28;20159;-73
2021/06/21 03:37:20;;;;;;;5.50;2.95;;;;;;;;;;5088228;28;20024;-73
2021/06/21 03:39:46;;;;;;;6.43;2.20;;;;;;;;;;5082045;28;20081;-73
2021/06/21 03:42:12;;;;;;;4.22;2.05;;;;;;;;;;5084981;28;20034;-73
2021/06/21 03:44:39;;;;;;;6.75;2.20;;;;;;;;;;5073711;28;20039;-73
2021/06/21 03:47:05;;;;;;;6.72;2.22;;;;;;;;;;5085569;28;20115;-73
2021/06/21 03:49:32;;;;;;;8.13;3.35;;;;;;;;;;5087964;28;20032;-73
2021/06/21 03:51:58;;;;;;;3.65;2.13;;;;;;;;;;5075794;28;20056;-72
2021/06/21 03:54:24;;;;;;;4.50;2.10;;;;;;;;;;5086309;28;20039;-72
2021/06/21 03:56:50;;;;;;;5.95;2.40;;;;;;;;;;5079560;28;20060;-72
2021/06/21 03:59:16;;;;;;;6.32;3.03;;;;;;;;;;5068592;28;20423;-73
2021/06/21 04:01:42;;;;;;;8.60;2.38;;;;;;;;;;5069379;28;20086;-73
2021/06/21 04:04:08;;;;;;;5.75;2.50;;;;;;;;;;5073041;28;20024;-73
2021/06/21 04:06:34;;;;;;;5.88;2.35;;;;;;;;;;5078528;28;20064;-73
2021/06/21 04:09:00;;;;;;;4.93;2.22;;;;;;;;;;5082923;28;20032;-72
2021/06/21 04:11:26;;;;;;;6.75;2.13;;;;;;;;;;5082035;28;20031;-72
2021/06/21 04:13:53;;;;;;;2.97;1.90;;;;;;;;;;5072906;28;20020;-72
2021/06/21 04:16:19;;;;;;;4.22;1.90;;;;;;;;;;5075911;28;20443;-72
2021/06/21 04:18:45;;;;;;;5.72;2.15;;;;;;;;;;5091022;28;20103;-72
2021/06/21 04:21:11;;;;;;;3.13;1.75;;;;;;;;;;5075387;28;20032;-72
2021/06/21 04:23:37;;;;;;;4.30;2.13;;;;;;;;;;5087589;28;20148;-73
2021/06/21 04:26:03;;;;;;;3.92;2.10;;;;;;;;;;5070821;28;20020;-72
2021/06/21 04:28:29;;;;;;;5.00;2.30;;;;;;;;;;5083559;28;20386;-72
2021/06/21 04:30:55;;;;;;;5.68;2.85;;;;;;;;;;5085976;28;20402;-72
2021/06/21 04:33:22;;;;;;;4.03;2.72;;;;;;;;;;5073789;28;20044;-72
2021/06/21 04:35:48;;;;;;;3.95;2.20;;;;;;;;;;5084894;28;20028;-72
2021/06/21 04:38:17;;;;;;;7.32;2.22;;;;;;;;;;5087331;28;20036;-72
2021/06/21 04:40:43;;;;;;;4.05;2.10;;;;;;;;;;5082040;28;20028;-73
2021/06/21 04:43:09;;;;;;;5.10;2.33;;;;;;;;;;5072409;28;20108;-73
2021/06/21 04:45:35;;;;;;;3.80;2.10;;;;;;;;;;5078879;28;20107;-73
2021/06/21 04:48:02;;;;;;;6.13;2.03;;;;;;;;;;5072259;28;20021;-73
2021/06/21 04:50:28;;;;;;;7.00;2.20;;;;;;;;;;5073474;28;20029;-73
2021/06/21 04:52:54;;;;;;;3.17;2.05;;;;;;;;;;5090518;28;20051;-72
2021/06/21 04:55:22;;;;;;;3.53;1.77;;;;;;;;;;5072474;28;20035;-73
2021/06/21 04:57:48;;;;;;;3.50;2.10;;;;;;;;;;5076380;28;20043;-73
2021/06/21 05:00:15;;;;;;;3.17;1.77;;;;;;;;;;5090867;28;20032;-73
2021/06/21 05:02:42;;;;;;;5.45;2.00;;;;;;;;;;5074700;28;20108;-73
2021/06/21 05:05:08;;;;;;;4.00;2.25;;;;;;;;;;5071679;28;20094;-72
2021/06/21 05:07:35;;;;;;;5.13;2.15;;;;;;;;;;5063049;28;20021;-72
2021/06/21 05:10:02;;;;;;;6.22;2.15;;;;;;;;;;5063631;28;20077;-72
2021/06/21 05:12:28;;;;;;;6.47;2.17;;;;;;;;;;5084111;28;20029;-73
2021/06/21 05:14:54;;;;;;;6.35;2.33;;;;;;;;;;5072052;28;20028;-73
2021/06/21 05:17:20;;;;;;;10.60;3.30;;;;;;;;;;5072176;28;20091;-72
2021/06/21 05:19:46;;;;;;;5.63;2.17;;;;;;;;;;5079149;28;20028;-73
2021/06/21 05:22:12;;;;;;;2.97;2.08;;;;;;;;;;5072979;28;20021;-73
2021/06/21 05:24:38;;;;;;;3.95;2.05;;;;;;;;;;5064431;28;20055;-73
2021/06/21 05:27:04;;;;;;;4.05;2.10;;;;;;;;;;5072230;28;20029;-73
2021/06/21 05:29:30;;;;;;;4.88;2.30;;;;;;;;;;5064067;28;20479;-73
2021/06/21 05:31:56;;;;;;;3.35;2.20;;;;;;;;;;5087603;28;20107;-73
2021/06/21 05:34:25;;;;;;;6.45;2.28;;;;;;;;;;5073653;28;20074;-73
2021/06/21 05:36:51;;;;;;;6.20;2.42;;;;;;;;;;5074798;28;20024;-73
2021/06/21 05:39:17;;;;;;;3.65;2.10;;;;;;;;;;5072004;28;20029;-72
2021/06/21 05:41:43;;;;;;;5.45;3.28;;;;;;;;;;5073693;28;20028;-72
2021/06/21 05:44:09;;;;;;;5.13;2.50;;;;;;;;;;5071800;28;20028;-72
2021/06/21 05:46:35;;;;;;;4.57;2.38;;;;;;;;;;5078336;28;20430;-72
2021/06/21 05:49:01;;;;;;;8.27;2.20;;;;;;;;;;5092110;28;20028;-72
2021/06/21 05:51:27;;;;;;;7.43;2.80;;;;;;;;;;5084673;28;20084;-72
2021/06/21 05:53:53;;;;;;;9.13;2.40;;;;;;;;;;5084458;28;20028;-72
2021/06/21 05:56:19;;;;;;;3.20;2.28;;;;;;;;;;5089055;28;20021;-72
2021/06/21 05:58:45;;;;;;;5.45;3.08;;;;;;;;;;5080529;28;20391;-72
2021/06/21 06:01:12;;;;;;;6.50;2.67;;;;;;;;;;5078893;28;20028;-72
2021/06/21 06:03:38;;;;;;;5.78;3.13;;;;;;;;;;5075340;28;20020;-73
2021/06/21 06:06:04;;;;;;;3.97;2.70;;;;;;;;;;5077654;28;20024;-72
2021/06/21 06:08:30;;;;;;;9.10;3.33;;;;;;;;;;5083559;28;20060;-72
2021/06/21 06:10:56;;;;;;;5.70;2.67;;;;;;;;;;5078413;28;20036;-72
2021/06/21 06:13:22;;;;;;;4.57;2.40;;;;;;;;;;5108240;28;20028;-72
2021/06/21 06:15:48;;;;;;;6.15;2.88;;;;;;;;;;5075237;28;20024;-72
2021/06/21 06:18:15;;;;;;;4.65;2.75;;;;;;;;;;5077851;28;20094;-73
2021/06/21 06:20:42;;;;;;;8.45;3.25;;;;;;;;;;5073582;28;20031;-72
2021/06/21 06:23:08;;;;;;;3.97;2.70;;;;;;;;;;5071785;28;20060;-72
2021/06/21 06:25:38;;;;;;;5.95;2.72;;;;;;;;;;5071027;28;20491;-73
2021/06/21 06:28:05;;;;;;;6.63;3.03;;;;;;;;;;5071204;28;20750;-72
2021/06/21 06:30:32;;;;;;;7.55;3.00;;;;;;;;;;5070538;28;20023;-71
2021/06/21 06:32:58;;;;;;;7.25;3.53;;;;;;;;;;5069878;28;20032;-72
2021/06/21 06:35:24;;;;;;;8.68;3.75;;;;;;;;;;5071173;28;20041;-72
2021/06/21 06:37:50;;;;;;;5.85;4.07;;;;;;;;;;5071450;28;20034;-71
2021/06/21 06:40:17;;;;;;;7.10;3.45;;;;;;;;;;5087552;28;20055;-72
2021/06/21 06:42:43;;;;;;;9.05;3.25;;;;;;;;;;5079579;28;20032;-72
2021/06/21 06:45:10;;;;;;;5.95;3.20;;;;;;;;;;5074941;28;20099;-72
2021/06/21 06:47:36;;;;;;;6.82;3.50;;;;;;;;;;5069570;28;20067;-72
2021/06/21 06:50:03;;;;;;;5.43;3.53;;;;;;;;;;5060292;28;20437;-71
2021/06/21 06:52:29;;;;;;;7.47;4.43;;;;;;;;;;5076316;28;20059;-72
2021/06/21 06:57:43;;;;;;;5.85;3.67;;;;;;;;;;5071738;28;20275;-72
2021/06/21 07:00:11;;;;;;;9.57;4.50;;;;;;;;;;5065255;28;20029;-72
2021/06/21 07:02:37;;;;;;;11.32;3.28;;;;;;;;;;5077154;28;20105;-70
2021/06/21 07:05:04;;;;;;;5.78;3.22;;;;;;;;;;5070631;28;20025;-71
2021/06/21 07:07:30;;;;;;;7.20;3.38;;;;;;;;;;5065913;28;20210;-72
2021/06/21 07:09:57;;;;;;;8.15;3.40;;;;;;;;;;5071637;28;20059;-71
2021/06/21 07:12:23;;;;;;;6.18;3.53;;;;;;;;;;5061223;28;20111;-72
2021/06/21 07:14:49;;;;;;;11.35;4.20;;;;;;;;;;5086573;28;20103;-71
2021/06/21 07:17:15;;;;;;;10.77;3.80;;;;;;;;;;5087317;28;20048;-70
2021/06/21 07:19:41;;;;;;;13.15;3.85;;;;;;;;;;5076899;28;20569;-70
2021/06/21 07:22:07;;;;;;;9.68;3.58;;;;;;;;;;5073818;28;20111;-70
2021/06/21 07:24:34;;;;;;;9.45;3.92;;;;;;;;;;5070029;28;20089;-71
2021/06/21 07:27:00;;;;;;;7.18;3.65;;;;;;;;;;5066943;28;20047;-71
2021/06/21 07:29:26;;;;;;;10.27;4.07;;;;;;;;;;5074979;28;20035;-71
2021/06/21 07:31:53;;;;;;;6.28;3.67;;;;;;;;;;5065280;28;20028;-72
2021/06/21 07:34:19;;;;;;;7.93;4.30;;;;;;;;;;5068381;28;20032;-71
2021/06/21 07:36:45;;;;;;;11.40;3.55;;;;;;;;;;5063305;28;20029;-71
2021/06/21 07:39:12;;;;;;;9.95;4.07;;;;;;;;;;5059423;28;20024;-71
2021/06/21 07:41:38;;;;;;;8.35;3.97;;;;;;;;;;5065099;28;20035;-71
2021/06/21 07:44:04;;;;;;;7.38;3.95;;;;;;;;;;5065582;28;20036;-72
2021/06/21 07:46:32;;;;;;;11.80;3.90;;;;;;;;;;5066357;28;20035;-71
2021/06/21 07:48:58;;;;;;;7.15;3.50;;;;;;;;;;5066101;28;20021;-72
2021/06/21 07:51:24;;;;;;;12.05;4.55;;;;;;;;;;5068261;28;20029;-72
2021/06/21 07:53:52;;;;;;;6.95;3.90;;;;;;;;;;5068328;28;20111;-70
2021/06/21 07:56:19;;;;;;;8.52;4.40;;;;;;;;;;5068483;28;20758;-71
2021/06/21 07:58:46;;;;;;;9.35;3.92;;;;;;;;;;5066114;28;20024;-72
2021/06/21 08:01:12;;;;;;;6.00;3.58;;;;;;;;;;5066233;28;20033;-71
2021/06/21 08:03:39;;;;;;;7.40;4.28;;;;;;;;;;5067674;28;20364;-72
2021/06/21 08:06:08;;;;;;;10.40;5.53;;;;;;;;;;5066440;28;20068;-71
2021/06/21 08:08:36;;;;;;;10.70;6.25;;;;;;;;;;5067929;28;20024;-72
2021/06/21 08:11:02;;;;;;;18.33;6.47;;;;;;;;;;5068342;28;20028;-72
2021/06/21 08:13:28;;;;;;;8.32;4.45;;;;;;;;;;5065078;28;20032;-71
2021/06/21 08:15:54;;;;;;;8.23;4.68;;;;;;;;;;5066041;28;20119;-71
2021/06/21 08:18:20;;;;;;;12.35;4.45;;;;;;;;;;5068362;28;20482;-71
2021/06/21 08:20:46;;;;;;;8.45;4.30;;;;;;;;;;5062666;28;20573;-71
2021/06/21 08:23:13;;;;;;;6.82;4.28;;;;;;;;;;5068004;28;20021;-71
2021/06/21 08:25:40;;;;;;;7.07;4.53;;;;;;;;;;5063735;28;22923;-73
2021/06/21 08:28:06;;;;;;;9.27;4.32;;;;;;;;;;5063207;28;20052;-71
2021/06/21 08:30:32;;;;;;;10.57;4.07;;;;;;;;;;5058357;28;20398;-70
2021/06/21 08:32:59;;;;;;;8.48;4.38;;;;;;;;;;5063818;28;20025;-74
2021/06/21 08:35:25;;;;;;;8.60;5.13;;;;;;;;;;5062525;28;20623;-73
2021/06/21 08:37:51;;;;;;;7.38;5.28;;;;;;;;;;5060049;28;20082;-72
2021/06/21 08:40:19;;;;;;;11.35;4.25;;;;;;;;;;5067873;28;20032;-72
2021/06/21 08:42:46;;;;;;;12.02;4.13;;;;;;;;;;5063148;28;20028;-72
2021/06/21 08:45:12;;;;;;;9.43;5.32;;;;;;;;;;5063769;28;20478;-72
2021/06/21 08:47:38;;;;;;;7.70;4.60;;;;;;;;;;5066781;28;20108;-72
2021/06/21 08:50:06;;;;;;;13.05;5.07;;;;;;;;;;5066868;28;20024;-74
2021/06/21 08:52:32;;;;;;;5.65;4.35;;;;;;;;;;5065104;28;20052;-74
2021/06/21 08:55:04;;;;;;;7.10;4.50;;;;;;;;;;5068044;28;20033;-75
2021/06/21 08:57:36;;;;;;;11.27;5.85;;;;;;;;;;5067588;28;20029;-75
2021/06/21 09:00:06;;;;;;;8.50;5.18;;;;;;;;;;5067733;28;20041;-72
2021/06/21 09:02:32;;;;;;;7.28;4.63;;;;;;;;;;5063920;28;20028;-73
2021/06/21 09:04:58;;;;;;;15.25;5.30;;;;;;;;;;5066345;28;20376;-72
2021/06/21 09:07:25;;;;;;;18.30;4.47;;;;;;;;;;5062611;28;20495;-72
2021/06/21 09:09:53;;;;;;;9.00;4.90;;;;;;;;;;5067341;28;20032;-71
2021/06/21 09:12:30;;;;;;;6.30;4.07;;;;;;;;;;5067122;28;20063;-72
2021/06/21 09:14:57;;;;;;;6.63;4.18;;;;;;;;;;5065239;28;20035;-72
2021/06/21 09:17:28;;;;;;;8.20;4.50;;;;;;;;;;5067896;28;20534;-72
2021/06/21 09:19:59;;;;;;;6.93;3.63;;;;;;;;;;5062655;28;20393;-72
2021/06/21 09:22:27;;;;;;;6.03;3.70;;;;;;;;;;5081274;28;20024;-69
2021/06/21 09:24:53;;;;;;;5.22;3.85;;;;;;;;;;5066113;28;20025;-72
2021/06/21 09:27:20;;;;;;;8.07;3.95;;;;;;;;;;5069369;28;20020;-72
2021/06/21 09:29:46;;;;;;;7.18;3.70;;;;;;;;;;5071428;28;20029;-72
2021/06/21 09:32:12;;;;;;;6.38;3.50;;;;;;;;;;5064929;28;20039;-72
2021/06/21 09:34:42;;;;;;;9.32;3.50;;;;;;;;;;5070527;28;20028;-72
2021/06/21 09:37:09;;;;;;;6.20;3.75;;;;;;;;;;5071279;28;20039;-73
2021/06/21 09:39:41;;;;;;;5.90;3.72;;;;;;;;;;5063778;28;20043;-72
2021/06/21 09:42:14;;;;;;;6.53;3.33;;;;;;;;;;5068007;28;20043;-72
2021/06/21 09:44:42;;;;;;;19.05;4.72;;;;;;;;;;5070817;28;20475;-72
2021/06/21 09:47:23;;;;;;;11.98;3.80;;;;;;;;;;5068602;28;20346;-71
2021/06/21 09:49:54;;;;;;;5.40;3.60;;;;;;;;;;5071367;28;20020;-73
2021/06/21 09:52:33;;;;;;;5.18;3.47;;;;;;;;;;5070792;28;20056;-72
2021/06/21 09:55:08;;;;;;;6.75;3.83;;;;;;;;;;5069692;28;20691;-72
2021/06/21 09:57:35;;;;;;;6.28;3.92;;;;;;;;;;5065268;28;20035;-72
2021/06/21 10:00:01;;;;;;;10.13;3.88;;;;;;;;;;5069461;28;20028;-72
2021/06/21 10:02:28;;;;;;;8.50;4.30;;;;;;;;;;5066418;28;20039;-73
2021/06/21 10:04:54;;;;;;;10.00;4.47;;;;;;;;;;5069339;28;20453;-72
2021/06/21 10:07:27;;;;;;;10.93;4.75;;;;;;;;;;5070792;28;20087;-71
2021/06/21 10:09:57;;;;;;;8.77;4.03;;;;;;;;;;5069248;28;20039;-71
2021/06/21 10:12:23;;;;;;;7.55;3.92;;;;;;;;;;5066825;28;20029;-72
2021/06/21 10:14:52;;;;;;;8.95;4.32;;;;;;;;;;5064735;28;20399;-72
2021/06/21 10:17:19;;;;;;;6.80;3.85;;;;;;;;;;5069183;28;20039;-71
2021/06/21 10:19:45;;;;;;;17.08;5.47;;;;;;;;;;5068754;28;20094;-71
2021/06/21 10:22:11;;;;;;;10.95;4.70;;;;;;;;;;5062741;28;20029;-71
2021/06/21 10:24:37;;;;;;;6.93;4.22;;;;;;;;;;5070241;28;20036;-71
2021/06/21 10:27:05;;;;;;;8.35;4.35;;;;;;;;;;5076903;28;20490;-72
2021/06/21 10:29:32;;;;;;;9.27;5.22;;;;;;;;;;5075423;28;20036;-73
2021/06/21 10:31:59;;;;;;;9.00;4.43;;;;;;;;;;5076320;28;20022;-73
2021/06/21 10:34:26;;;;;;;5.80;4.10;;;;;;;;;;5068869;28;20035;-71
2021/06/21 10:36:54;;;;;;;8.50;5.05;;;;;;;;;;5071213;28;20056;-72
2021/06/21 10:39:23;;;;;;;10.20;4.32;;;;;;;;;;5070812;28;20036;-71
2021/06/21 10:42:08;;;;;;;8.77;4.78;;;;;;;;;;5069924;28;20561;-71
2021/06/21 10:44:35;;;;;;;6.90;4.70;;;;;;;;;;5073819;28;20024;-72
2021/06/21 10:47:20;;;;;;;13.45;5.35;;;;;;;;;;5071160;28;20025;-71
2021/06/21 10:50:01;;;;;;;8.73;5.07;;;;;;;;;;5073883;28;20028;-72
2021/06/21 10:52:35;;;;;;;8.63;5.22;;;;;;;;;;5065491;28;20060;-72
2021/06/21 10:55:19;;;;;;;7.50;5.40;;;;;;;;;;5066909;28;20696;-73
2021/06/21 10:57:45;;;;;;;9.70;6.30;;;;;;;;;;5068365;28;20047;-71
2021/06/21 11:00:15;;;;;;;11.43;6.10;;;;;;;;;;5067297;28;20290;-70
2021/06/21 11:02:41;;;;;;;9.70;6.20;;;;;;;;;;5064506;28;20032;-74
2021/06/21 11:05:08;;;;;;;10.80;5.95;;;;;;;;;;5068792;28;20024;-73
2021/06/21 11:07:34;;;;;;;9.00;5.75;;;;;;;;;;5067475;28;20114;-71
2021/06/21 11:10:02;;;;;;;8.35;5.80;;;;;;;;;;5067845;28;20495;-71
2021/06/21 11:12:31;;;;;;;14.35;6.63;;;;;;;;;;5065719;28;20032;-71
2021/06/21 11:15:06;;;;;;;12.07;6.45;;;;;;;;;;5069087;28;20111;-71
2021/06/21 11:17:33;;;;;;;8.52;5.60;;;;;;;;;;5068576;28;20119;-72
2021/06/21 11:20:18;;;;;;;10.15;5.53;;;;;;;;;;5068115;28;20031;-72
2021/06/21 11:22:46;;;;;;;15.43;5.60;;;;;;;;;;5065994;28;20086;-70
2021/06/21 11:25:19;;;;;;;9.45;5.55;;;;;;;;;;5069110;28;20132;-70
2021/06/21 11:27:45;;;;;;;7.65;5.60;;;;;;;;;;5069203;28;20028;-71
2021/06/21 11:30:22;;;;;;;8.65;5.28;;;;;;;;;;5065800;28;20415;-72
2021/06/21 11:32:54;;;;;;;10.20;6.10;;;;;;;;;;5069696;28;20032;-72
2021/06/21 11:35:40;;;;;;;10.45;5.90;;;;;;;;;;5078863;28;20139;-71
2021/06/21 11:38:30;;;;;;;10.48;6.10;;;;;;;;;;5078535;28;20060;-71
2021/06/21 11:41:14;;;;;;;10.32;5.78;;;;;;;;;;5068385;28;20139;-71
2021/06/21 11:43:45;;;;;;;9.43;5.17;;;;;;;;;;5070348;28;20111;-72
2021/06/21 11:46:12;;;;;;;9.80;6.38;;;;;;;;;;5069816;28;20274;-71
2021/06/21 11:48:41;;;;;;;7.80;5.40;;;;;;;;;;5070414;28;20029;-71
2021/06/21 11:51:11;;;;;;;8.27;5.57;;;;;;;;;;5067652;28;20108;-69
2021/06/21 11:53:40;;;;;;;9.38;6.55;;;;;;;;;;5069580;28;20125;-71
2021/06/21 11:56:06;;;;;;;7.97;5.70;;;;;;;;;;5064201;28;20025;-72
2021/06/21 11:58:33;;;;;;;7.88;5.53;;;;;;;;;;5064028;28;20044;-72
2021/06/21 12:01:00;;;;;;;9.88;6.50;;;;;;;;;;5069912;28;20446;-72
2021/06/21 12:03:30;;;;;;;14.50;7.60;;;;;;;;;;5067683;28;20032;-72
2021/06/21 12:05:56;;;;;;;10.25;6.28;;;;;;;;;;5064716;28;20793;-72
2021/06/21 12:08:23;;;;;;;10.07;7.35;;;;;;;;;;5074176;28;20035;-71
2021/06/21 12:10:49;;;;;;;10.25;6.30;;;;;;;;;;5070022;28;20654;-71
2021/06/21 12:13:19;;;;;;;12.20;6.60;;;;;;;;;;5066533;28;20085;-72
2021/06/21 12:15:45;;;;;;;10.05;6.20;;;;;;;;;;5061689;28;20115;-71
2021/06/21 12:18:11;;;;;;;11.52;6.10;;;;;;;;;;5071622;28;20062;-71
2021/06/21 12:20:37;;;;;;;10.43;5.90;;;;;;;;;;5070360;28;20082;-71
2021/06/21 12:23:05;;;;;;;8.15;5.50;;;;;;;;;;5068450;28;20036;-71
2021/06/21 12:25:34;;;;;;;9.10;6.07;;;;;;;;;;5068822;28;20039;-71
2021/06/21 12:28:21;;;;;;;12.00;5.90;;;;;;;;;;5068713;28;20036;-71
2021/06/21 12:30:52;;;;;;;10.27;6.07;;;;;;;;;;5075140;28;20590;-71
2021/06/21 12:33:25;;;;;;;7.90;5.40;;;;;;;;;;5074602;28;20056;-71
2021/06/21 12:36:11;;;;;;;7.20;5.18;;;;;;;;;;5069140;28;20028;-72
2021/06/21 12:38:42;;;;;;;9.70;6.13;;;;;;;;;;5068871;28;20490;-72
2021/06/21 12:41:12;;;;;;;12.27;6.35;;;;;;;;;;5069080;28;20395;-72
2021/06/21 12:43:38;;;;;;;11.10;6.28;;;;;;;;;;5069115;28;20151;-72
2021/06/21 12:46:17;;;;;;;8.23;5.63;;;;;;;;;;5056986;28;20037;-72
2021/06/21 12:48:44;;;;;;;6.65;5.65;;;;;;;;;;5074880;28;20033;-71
2021/06/21 12:51:11;;;;;;;9.13;5.15;;;;;;;;;;5065648;28;20024;-72
2021/06/21 12:53:41;;;;;;;8.77;6.55;;;;;;;;;;5071516;28;20044;-71
2021/06/21 12:56:07;;;;;;;9.23;5.85;;;;;;;;;;5071298;28;20025;-72
2021/06/21 12:58:33;;;;;;;10.38;6.32;;;;;;;;;;5070516;28;20426;-71
2021/06/21 13:01:00;;;;;;;9.25;6.65;;;;;;;;;;5067636;28;20040;-72
2021/06/21 13:03:26;;;;;;;9.60;6.25;;;;;;;;;;5070312;28;20475;-72
2021/06/21 13:05:56;;;;;;;10.80;6.45;;;;;;;;;;5067074;28;20466;-70
2021/06/21 13:08:32;;;;;;;8.10;6.78;;;;;;;;;;5067486;28;20027;-71
2021/06/21 13:11:02;;;;;;;7.65;6.00;;;;;;;;;;5067446;28;20036;-70
2021/06/21 13:13:45;;;;;;;9.10;6.20;;;;;;;;;;5066170;28;20037;-71
2021/06/21 13:16:15;;;;;;;9.77;6.53;;;;;;;;;;5068527;28;20020;-70
2021/06/21 13:18:52;;;;;;;9.75;6.68;;;;;;;;;;5066867;28;20050;-70
2021/06/21 13:21:37;;;;;;;15.02;6.68;;;;;;;;;;5068245;28;20025;-71
2021/06/21 13:24:04;;;;;;;8.35;6.70;;;;;;;;;;5068836;28;20028;-72
2021/06/21 13:26:34;;;;;;;8.80;7.50;;;;;;;;;;5067134;28;20025;-72
2021/06/21 13:29:20;;;;;;;8.32;6.25;;;;;;;;;;5067826;28;20028;-72
2021/06/21 13:31:46;;;;;;;10.73;7.13;;;;;;;;;;5064821;28;20029;-71
2021/06/21 13:34:12;;;;;;;11.40;7.35;;;;;;;;;;5067833;28;20032;-72
2021/06/21 13:36:54;;;;;;;8.23;6.93;;;;;;;;;;5069295;28;20470;-72
2021/06/21 13:39:20;;;;;;;9.57;7.38;;;;;;;;;;5063551;28;20036;-71
2021/06/21 13:41:55;;;;;;;9.25;6.63;;;;;;;;;;5070545;28;20124;-72
2021/06/21 13:44:21;;;;;;;8.48;6.50;;;;;;;;;;5069752;28;20032;-73
2021/06/21 13:46:47;;;;;;;9.98;6.60;;;;;;;;;;5065927;28;20021;-72
2021/06/21 13:49:13;;;;;;;8.85;6.82;;;;;;;;;;5070165;28;20028;-72
2021/06/21 13:51:52;;;;;;;10.40;6.88;;;;;;;;;;5063935;28;20043;-72
2021/06/21 13:54:18;;;;;;;12.18;7.47;;;;;;;;;;5066682;28;20036;-72
2021/06/21 13:56:45;;;;;;;10.23;7.90;;;;;;;;;;5069017;28;20033;-73
2021/06/21 13:59:12;;;;;;;12.13;7.45;;;;;;;;;;5069006;28;20028;-73
2021/06/21 14:01:38;;;;;;;11.70;7.40;;;;;;;;;;5066275;28;20043;-73
2021/06/21 14:04:05;;;;;;;13.27;7.03;;;;;;;;;;5067709;28;20039;-71
2021/06/21 14:06:35;;;;;;;9.02;7.63;;;;;;;;;;5066741;28;20025;-70
2021/06/21 14:09:04;;;;;;;10.10;7.63;;;;;;;;;;5061088;28;20125;-70
2021/06/21 14:11:30;;;;;;;9.15;6.93;;;;;;;;;;5066460;28;20107;-71
2021/06/21 14:13:56;;;;;;;11.15;6.50;;;;;;;;;;5073735;28;20032;-72
2021/06/21 14:16:24;;;;;;;9.38;7.05;;;;;;;;;;5070446;28;20033;-71
2021/06/21 14:18:51;;;;;;;15.70;7.82;;;;;;;;;;5086520;28;20525;-71
2021/06/21 14:21:18;;;;;;;13.02;8.40;;;;;;;;;;5067966;28;20047;-71
2021/06/21 14:23:47;;;;;;;10.00;8.40;;;;;;;;;;5066121;28;20029;-72
2021/06/21 14:26:13;;;;;;;15.55;7.85;;;;;;;;;;5071010;28;20024;-72
2021/06/21 14:28:39;;;;;;;12.30;8.00;;;;;;;;;;5069687;28;20039;-72
2021/06/21 14:31:08;;;;;;;13.32;7.60;;;;;;;;;;5072200;28;20035;-71
2021/06/21 14:33:35;;;;;;;9.88;6.80;;;;;;;;;;5069005;28;20039;-72
2021/06/21 14:36:01;;;;;;;13.13;7.85;;;;;;;;;;5066490;28;20566;-72
2021/06/21 14:38:27;;;;;;;7.78;6.57;;;;;;;;;;5070238;28;20399;-72
2021/06/21 14:40:53;;;;;;;9.30;6.88;;;;;;;;;;5077587;28;20414;-73
2021/06/21 14:43:20;;;;;;;9.75;7.57;;;;;;;;;;5080918;28;20020;-72
2021/06/21 14:45:48;;;;;;;14.77;8.32;;;;;;;;;;5068000;28;20027;-73
2021/06/21 14:48:15;;;;;;;12.43;7.13;;;;;;;;;;5072986;28;20032;-72
2021/06/21 14:50:41;;;;;;;9.27;7.63;;;;;;;;;;5074880;28;20031;-72